Time;durP1;ratioP1;P1;durP2;ratioP2;P2;SDS_P1;SDS_P2;PMS_P1;PMS_P2;Temp;Humidity;BMP_temperature;BMP_pressure;BME280_temperature;BME280_humidity;BME280_pressure;Samples;Min_cycle;Max_cycle;Signal;HPM_P1;HPM_P2
2021/07/14 00:01:11;;;;;;;21.00;10.15;;;;;;;18.62;77.57;101223.47;10442384;28;20041;-78
2021/07/14 00:06:12;;;;;;;9.90;8.93;;;;;;;18.72;77.76;101237.38;10459507;28;20049;-77
2021/07/14 00:11:12;;;;;;;10.82;7.82;;;;;;;18.98;77.49;101266.19;10442362;28;20116;-77
2021/07/14 00:26:52;;;;;;;10.98;9.20;;;;;;;19.02;77.95;101278.38;10459325;28;20048;-77
2021/07/14 00:31:52;;;;;;;19.23;8.82;;;;;;;19.20;77.90;101277.31;10458371;28;20419;-77
2021/07/14 00:36:52;;;;;;;12.25;9.70;;;;;;;19.07;77.74;101286.69;10440912;28;20472;-77
2021/07/14 00:41:53;;;;;;;21.40;9.15;;;;;;;18.91;77.62;101247.13;10440924;28;20029;-77
2021/07/14 00:46:53;;;;;;;13.23;9.73;;;;;;;19.16;77.56;101290.72;10440935;28;20036;-78
2021/07/14 00:51:54;;;;;;;18.63;10.85;;;;;;;19.02;77.85;101284.69;10407638;28;20112;-78
2021/07/14 00:56:54;;;;;;;21.27;11.18;;;;;;;19.22;77.68;101288.91;10424197;28;20036;-78
2021/07/14 01:01:55;;;;;;;16.42;10.15;;;;;;;19.21;77.49;101277.09;10439013;28;20052;-77
2021/07/14 01:07:10;;;;;;;16.25;10.55;;;;;;;19.26;77.62;101298.31;10439650;28;20087;-78
2021/07/14 01:12:35;;;;;;;18.48;12.00;;;;;;;18.80;77.38;101231.56;10458250;28;20075;-78
2021/07/14 01:17:44;;;;;;;18.70;11.63;;;;;;;18.63;77.49;101209.50;10441845;28;20025;-78
2021/07/14 01:22:52;;;;;;;17.98;12.73;;;;;;;19.21;78.01;101284.50;10423603;28;20035;-78
2021/07/14 01:27:53;;;;;;;30.75;13.60;;;;;;;19.34;77.55;101291.59;10440172;28;20079;-78
2021/07/14 01:32:53;;;;;;;21.45;13.60;;;;;;;19.09;77.70;101256.25;10438436;28;20084;-77
2021/07/14 01:37:53;;;;;;;16.92;12.32;;;;;;;19.22;77.76;101269.69;10438808;28;20039;-78
2021/07/14 01:42:59;;;;;;;15.25;12.32;;;;;;;19.16;77.91;101287.13;10456354;28;20036;-78
2021/07/14 01:47:59;;;;;;;31.98;12.82;;;;;;;19.09;77.72;101259.00;10422199;28;20035;-78
2021/07/14 01:53:00;;;;;;;22.38;14.02;;;;;;;19.15;77.89;101252.53;10422354;28;20039;-78
2021/07/14 01:58:01;;;;;;;23.48;11.50;;;;;;;18.99;77.54;101234.94;10421775;28;20029;-78
2021/07/14 02:03:07;;;;;;;25.35;13.18;;;;;;;19.36;77.55;101294.91;10421275;28;20063;-78
2021/07/14 02:08:07;;;;;;;19.95;12.38;;;;;;;18.97;77.62;101204.16;10455996;28;20045;-78
2021/07/14 02:13:08;;;;;;;14.45;11.45;;;;;;;18.97;77.48;101221.44;10438619;28;20119;-78
2021/07/14 02:18:12;;;;;;;17.85;11.65;;;;;;;19.38;77.62;101281.78;10441035;28;20035;-78
2021/07/14 02:23:13;;;;;;;24.40;11.48;;;;;;;19.53;77.44;101287.56;10413557;28;20029;-78
2021/07/14 02:28:13;;;;;;;17.52;11.88;;;;;;;19.43;77.72;101273.63;10464079;28;20451;-78
2021/07/14 02:33:15;;;;;;;25.83;11.68;;;;;;;19.43;77.71;101262.63;10454983;28;20056;-78
2021/07/14 02:38:46;;;;;;;16.23;11.25;;;;;;;19.42;77.77;101256.31;10503769;28;20037;-77
2021/07/14 02:43:57;;;;;;;20.23;12.10;;;;;;;19.22;77.49;101214.78;10492081;28;20044;-78
2021/07/14 02:48:59;;;;;;;17.05;12.52;;;;;;;19.31;77.67;101239.91;10504645;28;20032;-78
2021/07/14 02:54:01;;;;;;;26.83;14.25;;;;;;;19.37;77.77;101253.50;10504418;28;20124;-78
2021/07/14 02:59:04;;;;;;;21.90;13.75;;;;;;;19.22;77.90;101251.28;10469714;28;20436;-77
2021/07/14 03:04:04;;;;;;;32.58;14.30;;;;;;;19.29;77.48;101259.38;10485414;28;20059;-78
2021/07/14 03:09:05;;;;;;;20.40;13.93;;;;;;;19.34;77.64;101256.72;10469311;28;20046;-78
2021/07/14 03:14:08;;;;;;;18.30;13.98;;;;;;;19.11;78.36;101245.84;10503868;28;20776;-78
2021/07/14 03:19:09;;;;;;;17.50;14.88;;;;;;;19.04;77.42;101233.09;10486488;28;20050;-78
2021/07/14 03:24:09;;;;;;;18.58;14.40;;;;;;;19.17;77.98;101242.13;10503033;28;20043;-78
2021/07/14 03:29:10;;;;;;;22.15;14.18;;;;;;;18.55;77.57;101127.63;10467952;28;20035;-78
2021/07/14 03:34:11;;;;;;;16.52;13.27;;;;;;;18.84;77.87;101179.75;10484422;28;20059;-78
2021/07/14 03:39:11;;;;;;;21.27;14.48;;;;;;;19.14;77.78;101237.94;10485011;28;20132;-76
2021/07/14 03:44:12;;;;;;;27.58;15.75;;;;;;;19.25;77.79;101242.56;10468157;28;20391;-76
2021/07/14 03:49:13;;;;;;;19.88;14.90;;;;;;;18.99;77.80;101199.25;10451166;28;20036;-79
2021/07/14 03:54:13;;;;;;;28.23;15.10;;;;;;;18.83;77.65;101154.25;10467724;28;20064;-77
2021/07/14 03:59:14;;;;;;;18.73;10.98;;;;;;;19.34;77.70;101240.25;10467865;28;20471;-76
2021/07/14 04:04:14;;;;;;;16.15;11.38;;;;;;;19.10;77.51;101211.25;10466015;28;20111;-77
2021/07/14 04:09:19;;;;;;;17.13;14.32;;;;;;;19.36;77.24;101245.47;10502299;28;20361;-76
2021/07/14 04:14:20;;;;;;;19.40;13.60;;;;;;;19.39;76.74;101254.06;10501238;28;20480;-76
2021/07/14 04:19:21;;;;;;;16.58;12.80;;;;;;;19.18;77.61;101249.31;10499966;28;20028;-77
2021/07/14 04:24:21;;;;;;;19.33;12.32;;;;;;;19.12;77.77;101236.56;10499442;28;20041;-78
2021/07/14 04:29:21;;;;;;;12.98;11.00;;;;;;;19.20;77.74;101236.13;10500881;28;20040;-77
2021/07/14 04:34:22;;;;;;;20.88;13.45;;;;;;;19.10;77.90;101203.00;10500138;28;20056;-77
2021/07/14 04:39:22;;;;;;;19.10;13.85;;;;;;;19.13;77.63;101208.00;10481834;28;20116;-77
2021/07/14 04:44:56;;;;;;;18.88;12.43;;;;;;;19.32;77.69;101239.66;10465167;28;20387;-77
2021/07/14 04:49:49;;;;;;;26.55;14.20;;;;;;;18.57;77.68;101177.59;10498501;28;20055;-78
2021/07/14 04:54:50;;;;;;;22.17;15.57;;;;;;;19.22;78.14;101254.03;10481673;28;20044;-76
2021/07/14 04:59:50;;;;;;;23.38;15.05;;;;;;;19.17;78.23;101258.59;10481398;28;20064;-78
2021/07/14 05:04:50;;;;;;;20.38;13.23;;;;;;;19.23;78.47;101247.47;10498473;28;20041;-77
2021/07/14 05:09:51;;;;;;;34.35;16.48;;;;;;;19.06;78.05;101197.19;10498881;28;20123;-77
2021/07/14 05:14:51;;;;;;;21.08;12.43;;;;;;;19.23;78.22;101243.88;10497487;28;20041;-78
2021/07/14 05:19:53;;;;;;;18.90;13.60;;;;;;;19.36;77.89;101260.03;10464393;28;20086;-77
2021/07/14 05:24:54;;;;;;;14.57;11.52;;;;;;;19.06;77.76;101202.69;10498236;28;20032;-77
2021/07/14 05:29:54;;;;;;;22.45;12.65;;;;;;;19.22;78.02;101245.81;10480156;28;20048;-77
2021/07/14 05:34:55;;;;;;;18.77;14.10;;;;;;;19.19;77.54;101227.06;10496853;28;20413;-77
2021/07/14 05:39:55;;;;;;;17.02;10.88;;;;;;;19.39;77.96;101272.44;10480597;28;20090;-78
2021/07/14 05:44:55;;;;;;;16.35;10.77;;;;;;;19.44;77.90;101273.38;10479480;28;20067;-77
2021/07/14 05:49:56;;;;;;;15.80;12.27;;;;;;;19.27;77.93;101281.59;10497607;28;20036;-77
2021/07/14 05:54:56;;;;;;;13.90;10.88;;;;;;;18.47;77.91;101177.34;10480174;28;20051;-77
2021/07/14 05:59:57;;;;;;;16.85;9.82;;;;;;;19.23;77.96;101305.13;10497281;28;20037;-79
2021/07/14 06:04:57;;;;;;;13.68;10.32;;;;;;;19.28;77.81;101315.38;10478845;28;20045;-78
2021/07/14 06:09:57;;;;;;;8.57;7.72;;;;;;;19.32;78.13;101308.31;10479088;28;20064;-78
2021/07/14 06:14:58;;;;;;;15.55;9.43;;;;;;;18.66;77.81;101235.63;10462470;28;20032;-78
2021/07/14 06:19:58;;;;;;;15.75;10.00;;;;;;;19.27;78.17;101313.69;10478907;28;20040;-76
2021/07/14 06:24:59;;;;;;;11.85;10.70;;;;;;;19.34;77.96;101303.41;10479081;28;20043;-78
2021/07/14 06:30:00;;;;;;;10.90;8.20;;;;;;;19.01;77.83;101276.69;10444675;28;20032;-78
2021/07/14 06:35:01;;;;;;;15.95;7.40;;;;;;;19.31;77.52;101309.41;10494691;28;20059;-78
2021/07/14 06:40:01;;;;;;;8.77;7.80;;;;;;;18.89;77.76;101251.19;10478542;28;20403;-78
2021/07/14 06:45:03;;;;;;;11.73;9.40;;;;;;;19.33;78.03;101320.13;10461674;28;20067;-78
2021/07/14 06:50:04;;;;;;;15.50;9.35;;;;;;;19.36;77.99;101305.91;10461538;28;20127;-77
2021/07/14 06:55:05;;;;;;;11.50;7.85;;;;;;;19.39;77.67;101311.72;10496775;28;20174;-76
2021/07/14 07:00:07;;;;;;;9.80;8.80;;;;;;;19.27;77.50;101303.56;10477833;28;20041;-77
2021/07/14 07:05:08;;;;;;;14.35;7.63;;;;;;;19.01;77.58;101244.56;10480088;28;20063;-77
2021/07/14 07:10:09;;;;;;;10.30;9.07;;;;;;;18.75;77.08;101215.81;10485599;28;20035;-76
2021/07/14 07:15:10;;;;;;;13.52;7.85;;;;;;;19.50;77.44;101326.50;10485097;28;20052;-77
2021/07/14 07:20:14;;;;;;;15.10;8.27;;;;;;;19.67;77.43;101323.81;10485082;28;20361;-78
2021/07/14 07:25:14;;;;;;;17.48;8.40;;;;;;;19.54;77.76;101305.69;10484826;28;20113;-77
2021/07/14 07:30:15;;;;;;;13.70;8.70;;;;;;;19.82;77.20;101321.34;10502542;28;20084;-76
2021/07/14 07:35:16;;;;;;;8.65;7.78;;;;;;;19.57;77.71;101261.25;10483415;28;20048;-78
2021/07/14 07:40:16;;;;;;;13.55;8.80;;;;;;;20.16;77.08;101307.56;10484102;28;20056;-77
2021/07/14 07:45:17;;;;;;;10.43;8.48;;;;;;;19.72;76.35;101217.56;10484215;28;20036;-78
2021/07/14 07:50:17;;;;;;;10.70;7.60;;;;;;;20.08;76.80;101308.00;10467317;28;20116;-78
2021/07/14 07:55:18;;;;;;;11.07;8.88;;;;;;;20.21;76.29;101305.72;10483583;28;20111;-78
2021/07/14 08:00:19;;;;;;;8.45;7.75;;;;;;;20.17;76.74;101301.81;10483351;28;20056;-77
2021/07/14 08:05:20;;;;;;;9.95;7.82;;;;;;;19.96;76.63;101253.94;10500601;28;20063;-77
2021/07/14 08:10:20;;;;;;;14.23;8.07;;;;;;;20.18;76.21;101281.50;10483329;28;20593;-78
2021/07/14 08:15:21;;;;;;;9.95;8.93;;;;;;;20.28;76.47;101291.81;10483233;28;20266;-77
2021/07/14 08:20:23;;;;;;;19.60;8.63;;;;;;;20.36;76.33;101288.63;10501215;28;20039;-78
2021/07/14 08:25:23;;;;;;;9.20;7.35;;;;;;;20.52;75.88;101308.16;10483221;28;20033;-77
2021/07/14 08:30:24;;;;;;;13.15;7.55;;;;;;;20.67;76.59;101311.06;10500640;28;20062;-77
2021/07/14 08:35:26;;;;;;;15.38;8.13;;;;;;;20.69;75.86;101306.16;10499265;28;20137;-77
2021/07/14 08:40:27;;;;;;;9.98;6.38;;;;;;;20.41;75.43;101265.84;10465531;28;20515;-77
2021/07/14 08:45:27;;;;;;;6.45;4.75;;;;;;;20.70;75.85;101320.75;10499278;28;20028;-77
2021/07/14 08:50:27;;;;;;;6.72;5.38;;;;;;;20.62;75.53;101303.59;10481288;28;20119;-77
2021/07/14 08:55:28;;;;;;;7.22;5.57;;;;;;;20.49;76.24;101303.94;10481123;28;20052;-77
2021/07/14 09:00:29;;;;;;;14.40;6.50;;;;;;;20.58;75.25;101307.97;10480568;28;20114;-76
2021/07/14 09:05:30;;;;;;;5.85;5.32;;;;;;;20.34;75.51;101298.22;10497948;28;20044;-77
2021/07/14 09:10:30;;;;;;;5.70;4.82;;;;;;;20.23;75.80;101294.50;10498616;28;20033;-77
2021/07/14 09:15:44;;;;;;;10.13;4.85;;;;;;;20.42;75.91;101312.38;10480577;28;20064;-77
2021/07/14 09:20:44;;;;;;;6.20;5.55;;;;;;;20.65;74.90;101314.09;10498020;28;20036;-76
2021/07/14 09:25:52;;;;;;;4.18;3.85;;;;;;;20.05;74.95;101223.28;10463128;28;20040;-76
2021/07/14 09:31:01;;;;;;;5.88;5.25;;;;;;;20.40;74.75;101305.47;10479931;28;20085;-74
2021/07/14 09:36:01;;;;;;;11.45;5.72;;;;;;;20.15;75.54;101298.50;10496738;28;20053;-78
2021/07/14 09:41:14;;;;;;;4.60;4.20;;;;;;;20.11;75.92;101330.31;10480113;28;20044;-77
2021/07/14 09:46:16;;;;;;;11.05;6.30;;;;;;;20.25;76.29;101318.97;10497438;28;20029;-74
2021/07/14 09:51:23;;;;;;;7.88;6.88;;;;;;;19.76;75.97;101222.56;10478990;28;20112;-77
2021/07/14 09:56:26;;;;;;;14.82;7.38;;;;;;;20.21;75.97;101318.66;10480517;28;20028;-75
2021/07/14 10:01:50;;;;;;;12.07;6.78;;;;;;;20.16;75.82;101285.56;10419031;28;20097;-76
2021/07/14 10:07:09;;;;;;;12.40;8.40;;;;;;;20.57;76.21;101317.28;10497615;28;20089;-76
2021/07/14 10:12:33;;;;;;;10.95;7.30;;;;;;;20.60;76.28;101267.25;10463256;28;20567;-76
2021/07/14 10:17:44;;;;;;;15.43;9.23;;;;;;;20.51;75.43;101246.75;10463047;28;20037;-74
2021/07/14 10:22:44;;;;;;;7.45;6.55;;;;;;;21.28;75.29;101303.56;10496581;28;20056;-74
2021/07/14 10:27:49;;;;;;;9.02;7.22;;;;;;;21.52;74.52;101295.84;10462117;28;20056;-75
2021/07/14 10:32:49;;;;;;;11.57;7.55;;;;;;;21.53;74.23;101322.28;10495217;28;20037;-77
2021/07/14 10:37:51;;;;;;;10.18;7.03;;;;;;;21.40;75.01;101303.44;10478312;28;20045;-76
2021/07/14 10:42:52;;;;;;;10.55;6.47;;;;;;;21.63;73.86;101329.00;10504225;28;20033;-75
2021/07/14 10:47:55;;;;;;;8.55;6.63;;;;;;;21.42;74.00;101284.72;10486167;28;20841;-75
2021/07/14 10:52:56;;;;;;;9.35;7.18;;;;;;;21.45;73.60;101306.25;10504175;28;20483;-75
2021/07/14 10:57:56;;;;;;;8.93;6.28;;;;;;;21.49;73.59;101339.63;10470943;28;20136;-77
2021/07/14 11:02:56;;;;;;;7.00;6.30;;;;;;;21.66;74.28;101337.56;10526229;28;20476;-76
2021/07/14 11:07:57;;;;;;;6.43;5.82;;;;;;;21.35;74.59;101330.94;10486795;28;20039;-76
2021/07/14 11:12:58;;;;;;;11.18;7.20;;;;;;;21.50;73.90;101342.09;10468378;28;20475;-75
2021/07/14 11:18:00;;;;;;;9.10;8.05;;;;;;;21.43;73.03;101344.25;10468261;28;20119;-77
2021/07/14 11:23:07;;;;;;;15.30;7.88;;;;;;;21.53;74.59;101336.06;10484709;28;20365;-76
2021/07/14 11:28:08;;;;;;;14.20;7.20;;;;;;;21.24;74.37;101277.63;10469150;28;20032;-76
2021/07/14 11:33:08;;;;;;;8.43;6.35;;;;;;;21.65;73.88;101272.53;10483718;28;20495;-75
2021/07/14 11:38:17;;;;;;;8.02;5.55;;;;;;;22.40;73.29;101328.56;10470146;28;20040;-76
2021/07/14 11:43:19;;;;;;;10.55;6.57;;;;;;;22.27;72.33;101346.41;10442998;28;20116;-76
2021/07/14 11:48:35;;;;;;;16.60;7.43;;;;;;;21.66;73.31;101246.63;10461087;28;20417;-77
2021/07/14 11:53:41;;;;;;;11.32;8.32;;;;;;;21.80;72.69;101267.16;10466397;28;20464;-75
2021/07/14 11:58:41;;;;;;;21.08;7.45;;;;;;;22.21;72.45;101291.47;10483167;28;20066;-74
2021/07/14 12:03:42;;;;;;;13.23;8.10;;;;;;;22.93;72.08;101317.50;10479338;28;20522;-74
2021/07/14 12:08:43;;;;;;;23.92;9.43;;;;;;;22.37;72.43;101334.63;10448603;28;20372;-74
2021/07/14 12:13:43;;;;;;;11.98;8.85;;;;;;;22.36;72.52;101316.38;10482350;28;20075;-74
2021/07/14 12:18:53;;;;;;;16.15;8.48;;;;;;;22.46;72.75;101260.41;10465599;28;20448;-75
2021/07/14 12:23:53;;;;;;;11.13;8.18;;;;;;;23.21;72.29;101310.72;10481436;28;20032;-74
2021/07/14 12:28:53;;;;;;;9.25;8.35;;;;;;;23.16;72.14;101313.47;10499887;28;20064;-75
2021/07/14 12:33:55;;;;;;;13.10;7.90;;;;;;;22.68;71.91;101274.03;10480508;28;20122;-74
2021/07/14 12:38:56;;;;;;;12.23;7.43;;;;;;;22.89;71.23;101281.31;10496700;28;20492;-75
2021/07/14 12:44:10;;;;;;;6.32;5.68;;;;;;;23.07;71.27;101290.22;10480911;28;20123;-74
2021/07/14 12:49:15;;;;;;;8.13;6.15;;;;;;;23.23;70.57;101313.22;10459608;28;20029;-73
2021/07/14 12:54:20;;;;;;;9.25;7.47;;;;;;;23.00;70.69;101278.63;10457323;28;20391;-73
2021/07/14 12:59:20;;;;;;;11.70;6.88;;;;;;;23.08;71.00;101312.06;10488733;28;20040;-74
2021/07/14 13:04:21;;;;;;;14.25;8.27;;;;;;;23.01;70.60;101310.69;10456193;28;20553;-73
2021/07/14 13:09:21;;;;;;;14.15;8.35;;;;;;;22.89;70.84;101314.47;10461587;28;20041;-74
2021/07/14 13:14:21;;;;;;;13.88;9.30;;;;;;;22.08;71.38;101253.25;10438529;28;20037;-75
2021/07/14 13:19:28;;;;;;;19.40;10.15;;;;;;;22.10;72.02;101315.34;10438202;28;20033;-74
2021/07/14 13:24:32;;;;;;;14.52;10.55;;;;;;;22.06;71.82;101308.72;10455782;28;20469;-74
2021/07/14 13:29:33;;;;;;;16.23;9.45;;;;;;;21.86;71.85;101251.47;10439057;28;20048;-74
2021/07/14 13:34:43;;;;;;;11.85;10.43;;;;;;;21.88;73.17;101311.88;10453302;28;20053;-75
2021/07/14 13:39:44;;;;;;;12.60;9.15;;;;;;;21.52;72.63;101290.31;10494557;28;20511;-75
2021/07/14 13:44:44;;;;;;;16.50;10.43;;;;;;;21.96;71.82;101319.66;10496688;28;20059;-74
2021/07/14 13:49:45;;;;;;;25.02;10.88;;;;;;;22.15;71.92;101242.84;10478674;28;20036;-74
2021/07/14 13:54:46;;;;;;;22.77;11.35;;;;;;;22.54;70.81;101293.03;10496246;28;20079;-76
2021/07/14 13:59:50;;;;;;;21.98;10.55;;;;;;;22.54;71.18;101300.50;10478275;28;20444;-78
2021/07/14 14:04:52;;;;;;;16.02;11.35;;;;;;;22.23;72.14;101269.94;10460945;28;20047;-76
2021/07/14 14:10:13;;;;;;;19.88;10.88;;;;;;;21.86;71.80;101239.59;10495663;28;20102;-75
2021/07/14 14:15:18;;;;;;;13.63;10.77;;;;;;;21.87;73.00;101301.94;10506474;28;20423;-75
2021/07/14 14:20:29;;;;;;;23.90;10.60;;;;;;;21.20;72.74;101243.44;10509950;28;20094;-75
2021/07/14 14:25:36;;;;;;;14.77;10.43;;;;;;;21.45;72.44;101292.47;10510003;28;20037;-75
2021/07/14 14:30:36;;;;;;;20.00;12.02;;;;;;;21.28;73.69;101284.28;10493020;28;20514;-76
2021/07/14 14:35:37;;;;;;;17.98;12.32;;;;;;;21.23;73.52;101259.44;10502522;28;20041;-76
2021/07/14 14:40:39;;;;;;;14.18;12.45;;;;;;;21.29;73.42;101291.44;10457224;28;20143;-75
2021/07/14 14:45:39;;;;;;;22.73;14.68;;;;;;;21.07;73.33;101294.25;10467430;28;20041;-75
2021/07/14 14:50:40;;;;;;;20.02;15.45;;;;;;;20.84;73.79;101275.25;10467403;28;20036;-76
2021/07/14 14:55:41;;;;;;;21.15;16.75;;;;;;;20.88;74.30;101273.66;10434645;28;20040;-76
2021/07/14 15:00:41;;;;;;;27.17;16.35;;;;;;;21.10;74.57;101288.22;10468420;28;20060;-76
2021/07/14 15:05:42;;;;;;;24.02;14.48;;;;;;;21.08;74.06;101292.31;10449986;28;20064;-75
2021/07/14 15:10:44;;;;;;;18.48;14.68;;;;;;;20.35;74.46;101159.59;10468434;28;20404;-75
2021/07/14 15:15:44;;;;;;;33.20;12.93;;;;;;;20.66;74.61;101243.38;10467463;28;20040;-75
2021/07/14 15:20:46;;;;;;;21.48;13.23;;;;;;;20.96;74.08;101266.84;10450351;28;20519;-75
2021/07/14 15:30:50;;;;;;;22.80;15.80;;;;;;;21.30;73.45;101273.00;10461593;28;20033;-74
2021/07/14 15:35:50;;;;;;;21.50;14.57;;;;;;;21.18;73.59;101280.56;10460735;28;20472;-75
2021/07/14 15:40:51;;;;;;;22.10;14.18;;;;;;;21.40;74.55;101286.06;10443391;28;20064;-75
2021/07/14 15:45:52;;;;;;;32.35;13.57;;;;;;;20.56;73.45;101180.81;10460962;28;20511;-75
2021/07/14 15:50:52;;;;;;;23.52;13.25;;;;;;;21.14;73.69;101289.34;10460747;28;20064;-75
2021/07/14 15:55:53;;;;;;;24.55;15.48;;;;;;;21.23;73.92;101298.00;10442873;28;20044;-75
2021/07/14 16:00:54;;;;;;;31.25;16.05;;;;;;;21.39;73.81;101284.41;10442320;28;20071;-75
2021/07/14 16:05:58;;;;;;;28.40;13.52;;;;;;;21.43;73.78;101297.41;10460808;28;20116;-75
2021/07/14 16:10:59;;;;;;;39.75;13.18;;;;;;;20.89;74.34;101193.53;10442158;28;20036;-75
2021/07/14 16:16:00;;;;;;;20.38;12.55;;;;;;;21.36;74.12;101283.84;10458667;28;20473;-75
2021/07/14 16:21:00;;;;;;;36.60;13.10;;;;;;;21.30;74.17;101279.34;10441917;28;20033;-75
2021/07/14 16:26:01;;;;;;;30.73;18.13;;;;;;;;;;10441609;28;20033;-75
2021/07/14 16:31:01;;;;;;;30.75;13.82;;;;;;;20.89;73.88;101220.25;10459230;28;20595;-74
2021/07/14 16:36:02;;;;;;;34.95;16.27;;;;;;;20.85;74.57;101224.59;10456828;28;20087;-75
2021/07/14 16:41:02;;;;;;;57.20;17.10;;;;;;;21.14;74.75;101278.34;10457694;28;20037;-74
2021/07/14 16:46:03;;;;;;;32.50;16.15;;;;;;;20.88;74.58;101270.88;10457783;28;20552;-74
2021/07/14 16:51:04;;;;;;;41.10;15.82;;;;;;;20.31;75.15;101196.97;10456802;28;20029;-75
2021/07/14 16:56:05;;;;;;;38.20;15.63;;;;;;;20.79;75.24;101270.50;10440644;28;20033;-75
2021/07/14 17:01:08;;;;;;;32.13;15.95;;;;;;;20.73;75.37;101277.03;10458775;28;20419;-75
2021/07/14 17:06:09;;;;;;;35.10;14.15;;;;;;;20.82;75.34;101294.75;10457729;28;20043;-77
2021/07/14 17:11:09;;;;;;;23.48;12.52;;;;;;;20.73;75.59;101284.47;10440041;28;20029;-74
2021/07/14 17:16:09;;;;;;;31.92;15.55;;;;;;;20.65;75.95;101283.81;10456136;28;20416;-75
2021/07/14 17:21:13;;;;;;;31.10;14.63;;;;;;;20.62;75.61;101262.31;10439501;28;20037;-75
2021/07/14 17:26:13;;;;;;;30.02;14.77;;;;;;;20.56;75.43;101251.50;10455949;28;20037;-75
2021/07/14 17:31:14;;;;;;;27.52;13.68;;;;;;;19.81;75.72;101129.19;10456088;28;20087;-75
2021/07/14 17:36:14;;;;;;;38.90;14.85;;;;;;;20.74;75.75;101272.34;10455182;28;20400;-75
2021/07/14 17:41:19;;;;;;;20.67;12.55;;;;;;;20.60;75.91;101271.91;10456552;28;20040;-76
2021/07/14 17:46:20;;;;;;;24.42;14.40;;;;;;;20.56;75.96;101259.75;10455547;28;20411;-75
2021/07/14 17:51:20;;;;;;;32.95;14.52;;;;;;;20.59;76.07;101297.78;10455855;28;20040;-74
2021/07/14 17:56:20;;;;;;;31.08;12.63;;;;;;;20.54;76.41;101284.75;10456249;28;20037;-76
2021/07/14 18:01:21;;;;;;;31.27;12.52;;;;;;;20.36;76.08;101263.06;10455250;28;20488;-74
2021/07/14 18:06:22;;;;;;;21.50;12.95;;;;;;;20.62;75.58;101273.34;10455209;28;20442;-75
2021/07/14 18:11:23;;;;;;;24.98;13.13;;;;;;;20.51;76.15;101251.41;10438410;28;20122;-75
2021/07/14 18:16:23;;;;;;;23.50;12.57;;;;;;;20.63;75.50;101290.66;10456274;28;20115;-76
2021/07/14 18:21:25;;;;;;;19.92;12.82;;;;;;;19.91;75.99;101192.53;10454577;28;20112;-74
2021/07/14 18:26:26;;;;;;;18.33;11.35;;;;;;;20.35;76.22;101286.13;10454564;28;20037;-75
2021/07/14 18:31:26;;;;;;;26.48;13.32;;;;;;;20.23;76.76;101279.88;10456316;28;20073;-75
2021/07/14 18:36:26;;;;;;;33.97;13.48;;;;;;;19.07;76.27;101130.22;10453725;28;20132;-76
2021/07/14 18:41:29;;;;;;;25.23;12.50;;;;;;;20.06;76.30;101282.66;10453801;28;20039;-74
2021/07/14 18:46:30;;;;;;;21.60;12.60;;;;;;;20.04;76.71;101296.69;10454115;28;20061;-74
2021/07/14 18:51:32;;;;;;;32.63;14.50;;;;;;;19.90;76.69;101278.84;10454826;28;20041;-74
2021/07/14 18:56:33;;;;;;;32.60;12.52;;;;;;;20.07;76.49;101287.94;10455087;28;20037;-74
2021/07/14 19:01:34;;;;;;;26.80;15.10;;;;;;;19.88;76.98;101298.34;10458648;28;20466;-74
2021/07/14 19:06:34;;;;;;;21.10;13.65;;;;;;;19.68;77.88;101303.50;10461988;28;20057;-75
2021/07/14 19:11:34;;;;;;;32.13;14.23;;;;;;;19.71;77.35;101303.00;10462612;28;20037;-75
2021/07/14 19:16:35;;;;;;;58.33;15.52;;;;;;;19.40;77.80;101296.94;10462320;28;20484;-75
2021/07/14 19:21:35;;;;;;;27.08;14.50;;;;;;;19.35;78.74;101307.00;10461401;28;20037;-74
2021/07/14 19:26:37;;;;;;;27.65;11.95;;;;;;;19.64;78.17;101324.31;10443887;28;20503;-74
2021/07/14 19:31:38;;;;;;;29.20;14.38;;;;;;;19.14;78.41;101268.16;10460480;28;20068;-75
2021/07/14 19:36:38;;;;;;;38.50;15.30;;;;;;;19.40;78.57;101318.06;10460798;28;20121;-74
2021/07/14 19:41:39;;;;;;;25.50;13.93;;;;;;;19.39;78.43;101299.91;10460943;28;20404;-74
2021/07/14 19:46:39;;;;;;;24.70;13.32;;;;;;;19.02;78.59;101267.38;10460071;28;20072;-74
2021/07/14 19:51:42;;;;;;;42.47;17.33;;;;;;;19.18;78.78;101282.25;10459802;28;20040;-73
2021/07/14 19:56:43;;;;;;;37.35;15.57;;;;;;;19.10;78.86;101288.94;10460475;28;20033;-74
2021/07/14 20:01:43;;;;;;;33.47;15.68;;;;;;;18.71;79.45;101239.28;10459646;28;20037;-74
2021/07/14 20:06:43;;;;;;;41.80;16.60;;;;;;;19.43;79.56;101345.88;10458454;28;20463;-75
2021/07/14 20:11:44;;;;;;;43.28;17.65;;;;;;;19.39;79.50;101341.94;10459655;28;20377;-74
2021/07/14 20:16:44;;;;;;;32.25;16.35;;;;;;;19.28;79.57;101335.44;10458344;28;20040;-75
2021/07/14 20:21:45;;;;;;;31.73;15.38;;;;;;;19.26;79.39;101329.34;10413137;28;20052;-74
2021/07/14 20:26:45;;;;;;;37.90;16.55;;;;;;;19.39;79.74;101335.63;10459676;28;20040;-73
2021/07/14 20:31:45;;;;;;;25.35;15.52;;;;;;;19.37;79.39;101344.13;10442253;28;20464;-74
2021/07/14 20:36:46;;;;;;;31.85;17.10;;;;;;;19.41;79.81;101347.19;10457303;28;20061;-73
2021/07/14 20:41:46;;;;;;;22.23;17.30;;;;;;;18.94;79.55;101286.97;10458798;28;20123;-73
2021/07/14 20:46:47;;;;;;;36.13;15.00;;;;;;;19.17;79.71;101328.06;10458605;28;20040;-73
2021/07/14 20:51:47;;;;;;;26.33;15.20;;;;;;;19.36;79.83;101383.63;10458570;28;20048;-74
2021/07/14 20:56:47;;;;;;;27.30;13.93;;;;;;;19.13;79.37;101357.09;10458115;28;20056;-74
2021/07/14 21:01:48;;;;;;;32.88;15.18;;;;;;;19.50;79.14;101384.19;10440390;28;20079;-74
2021/07/14 21:06:48;;;;;;;20.00;13.15;;;;;;;19.51;79.55;101383.94;10457351;28;20071;-74
2021/07/14 21:11:49;;;;;;;35.33;13.20;;;;;;;19.47;80.04;101379.19;10457615;28;20333;-74
2021/07/14 21:16:49;;;;;;;33.05;15.73;;;;;;;19.43;79.41;101375.25;10457532;28;20040;-74
2021/07/14 21:21:50;;;;;;;30.38;13.40;;;;;;;19.21;79.30;101333.91;10417078;28;20048;-74
2021/07/14 21:26:50;;;;;;;38.25;15.60;;;;;;;19.54;79.46;101390.84;10459687;28;20598;-74
2021/07/14 21:31:51;;;;;;;29.05;11.80;;;;;;;19.61;79.43;101401.69;10442025;28;20464;-74
2021/07/14 21:36:51;;;;;;;28.90;14.45;;;;;;;19.42;79.54;101398.31;10476203;28;20059;-74
2021/07/14 21:41:52;;;;;;;27.58;12.75;;;;;;;19.50;79.45;101406.16;10458270;28;20083;-74
2021/07/14 21:46:53;;;;;;;36.60;14.48;;;;;;;19.64;79.15;101420.47;10458521;28;20063;-74
2021/07/14 21:51:53;;;;;;;36.70;14.88;;;;;;;19.51;79.37;101416.91;10475973;28;20469;-74
2021/07/14 21:56:54;;;;;;;41.90;13.77;;;;;;;19.41;79.60;101405.72;10458072;28;20119;-75
2021/07/14 22:01:54;;;;;;;21.92;13.20;;;;;;;19.40;79.61;101422.41;10457557;28;20384;-75
2021/07/14 22:06:54;;;;;;;32.20;14.55;;;;;;;19.37;79.27;101428.41;10475193;28;20056;-74
2021/07/14 22:11:55;;;;;;;31.30;13.30;;;;;;;18.97;79.45;101330.41;10438523;28;20055;-74
2021/07/14 22:16:55;;;;;;;28.73;12.75;;;;;;;19.49;79.69;101410.78;10476451;28;20044;-76
2021/07/14 22:21:56;;;;;;;23.70;13.38;;;;;;;19.43;79.54;101416.44;10479126;28;20040;-75
2021/07/14 22:26:57;;;;;;;26.08;14.50;;;;;;;19.40;79.19;101405.94;10479079;28;20124;-75
2021/07/14 22:31:57;;;;;;;25.58;13.10;;;;;;;19.40;79.65;101415.03;10479297;28;20089;-74
2021/07/14 22:36:57;;;;;;;26.45;16.50;;;;;;;19.27;79.35;101394.19;10485325;28;20084;-74
2021/07/14 22:41:59;;;;;;;32.53;14.43;;;;;;;19.31;79.30;101411.00;10487338;28;20048;-74
2021/07/14 22:47:00;;;;;;;26.02;13.77;;;;;;;19.32;79.48;101406.34;10487164;28;20045;-74
2021/07/14 22:52:00;;;;;;;31.02;14.20;;;;;;;19.15;79.90;101403.53;10504641;28;20443;-74
2021/07/14 22:57:00;;;;;;;26.23;11.88;;;;;;;19.23;79.50;101384.75;10486588;28;20391;-74
2021/07/14 23:02:01;;;;;;;26.02;13.55;;;;;;;19.19;79.84;101394.56;10504153;28;20136;-74